• Join FlightAware (Why Join?)
  • Login
  • US Flag 
12:05PM EDT


 

Airport Tracker/Info


-or-


 

Live Flight TrackerFlight Track Log ✈ XA-PBT ✈ 17-Sep-2013 ✈ KLAS - MMAN / NTR

Flight Track Log - Related Links

Times and Time Zones

All times are in EDT time to prevent confusion due to time zone crossing. See the XA-PBT flight status page for this flight to view local times or setup timezone preferences in your user account.

Time Position Orientation Groundspeed Altitude Reporting Facility
EDT Latitude Longitude Course Direction KTS MPH feet Rate Location/Type
04:47PM 36.0789 -115.1911 269° West 207 238 3,200  Level Los Angeles Center
04:47PM 36.0783 -115.2181 269° West 207 238 4,000 2,160 Climbing Los Angeles Center
04:48PM 36.0414 -115.2672 227° Southwest 220 253 6,300 1,920 Climbing Los Angeles Center
04:49PM 36.0231 -115.2711 190° South 232 267 6,700 1,860 Climbing Los Angeles Center
04:49PM 35.9731 -115.3003 205° Southwest 252 290 8,200 2,280 Climbing Los Angeles Center
04:50PM 35.9067 -115.3328 202° Southwest 255 293 10,600 2,280 Climbing Los Angeles Center
04:52PM 35.8403 -115.2856 150° Southeast 314 361 13,100 1,980 Climbing Los Angeles Center
04:52PM 35.8358 -115.2628 104° East 328 377 13,500 1,980 Climbing Los Angeles Center
04:53PM 35.8386 -115.1347 88° East 337 388 15,800 1,740 Climbing Los Angeles Center
04:54PM 35.8483 -115.0111 84° East 348 400 17,200 2,160 Climbing Los Angeles Center
04:55PM 35.8558 -114.8842 86° East 358 412 20,700 2,700 Climbing Los Angeles Center
04:56PM 35.8681 -114.7047 85° East 374 430 23,400 2,280 Climbing Los Angeles Center
04:57PM 35.8772 -114.5744 85° East 380 437 25,500 1,920 Climbing Los Angeles Center
04:58PM 35.8869 -114.4431 85° East 386 444 27,500 1,920 Climbing Los Angeles Center
04:59PM 35.8956 -114.3103 85° East 388 447 29,500 1,500 Climbing Los Angeles Center
05:00PM 35.9036 -114.1850 85° East 385 443 30,700 1,080 Climbing Los Angeles Center
05:01PM 35.9136 -114.0206 86° East 397 457 31,800 840 Climbing Los Angeles Center
05:02PM 35.8750 -113.8900 110° East 414 476 32,500 660 Climbing Los Angeles Center
05:03PM 35.8158 -113.7697 121° Southeast 411 473 33,200 720 Climbing Los Angeles Center
05:05PM 35.7556 -113.6431 120° Southeast 423 487 34,100 960 Climbing Los Angeles Center
05:06PM 35.6944 -113.5167 121° Southeast 430 495 35,300 1,200 Climbing Los Angeles Center
05:07PM 35.6242 -113.3697 120° Southeast 421 484 36,600 780 Climbing Los Angeles Center
05:08PM 35.5622 -113.2431 121° Southeast 413 475 37,000 180 Climbing Los Angeles Center
05:09PM 35.5008 -113.1167 121° Southeast 424 488 37,000  Level Los Angeles Center
05:10PM 35.4369 -112.9828 120° Southeast 446 513 37,000  Level Los Angeles Center
05:11PM 35.3678 -112.8428 121° Southeast 474 545 37,000  Level Los Angeles Center
05:12PM 35.3161 -112.7386 121° Southeast 472 543 37,000  Level Albuquerque Center
05:13PM 35.2419 -112.5914 122° Southeast 480 552 37,000  Level Albuquerque Center
05:14PM 35.1731 -112.4539 121° Southeast 478 550 37,000  Level Albuquerque Center
05:15PM 35.1033 -112.3147 121° Southeast 481 554 37,000  Level Albuquerque Center
05:16PM 35.0186 -112.1469 122° Southeast 484 557 37,000  Level Albuquerque Center
05:17PM 34.9492 -112.0092 122° Southeast 482 555 37,000  Level Albuquerque Center
05:18PM 34.8783 -111.8706 122° Southeast 483 556 37,000  Level Albuquerque Center
05:19PM 34.8094 -111.7339 122° Southeast 479 551 37,000  Level Albuquerque Center
05:20PM 34.7400 -111.5986 122° Southeast 478 550 37,000  Level Albuquerque Center
05:21PM 34.6708 -111.4625 122° Southeast 475 547 37,000  Level Albuquerque Center
05:22PM 34.5864 -111.2986 122° Southeast 474 545 37,000  Level Albuquerque Center
05:23PM 34.5164 -111.1625 122° Southeast 475 547 37,000  Level Albuquerque Center
05:24PM 34.4461 -111.0272 122° Southeast 474 545 37,000  Level Albuquerque Center
05:25PM 34.3772 -110.8922 122° Southeast 471 542 37,000  Level Albuquerque Center
05:26PM 34.3067 -110.7581 122° Southeast 471 542 37,000  Level Albuquerque Center
05:27PM 34.2372 -110.6225 122° Southeast 471 542 37,000  Level Albuquerque Center
05:28PM 34.1672 -110.4883 122° Southeast 472 543 37,000  Level Albuquerque Center
05:29PM 34.0972 -110.3567 123° Southeast 470 541 37,000  Level Albuquerque Center
05:30PM 34.0125 -110.1989 123° Southeast 467 537 37,000  Level Albuquerque Center
05:31PM 33.9425 -110.0683 123° Southeast 466 536 37,000  Level Albuquerque Center
05:32PM 33.8731 -109.9361 122° Southeast 467 537 37,000  Level Albuquerque Center
05:33PM 33.8028 -109.8056 123° Southeast 466 536 37,000  Level Albuquerque Center
05:34PM 33.7333 -109.6744 122° Southeast 466 536 37,000  Level Albuquerque Center
05:35PM 33.6622 -109.5436 123° Southeast 467 537 37,000  Level Albuquerque Center
05:36PM 33.5911 -109.4136 123° Southeast 466 536 37,000 240 Level Albuquerque Center
05:37PM 33.5069 -109.2583 123° Southeast 464 534 37,600 780 Climbing Albuquerque Center
05:38PM 33.4386 -109.1319 123° Southeast 455 524 38,600 660 Climbing Albuquerque Center
05:39PM 33.3711 -109.0092 123° Southeast 443 510 39,000 180 Climbing Albuquerque Center
05:40PM 33.2886 -108.8981 132° Southeast 444 511 39,000  Level Albuquerque Center
05:41PM 33.1939 -108.7781 133° Southeast 449 517 39,000  Level Albuquerque Center
05:42PM 33.1150 -108.6739 132° Southeast 454 522 39,000  Level Albuquerque Center
05:44PM 33.0286 -108.5636 133° Southeast 452 520 39,000  Level Albuquerque Center
05:45PM 32.9419 -108.4544 133° Southeast 451 519 39,000  Level Albuquerque Center
05:46PM 32.8389 -108.3236 133° Southeast 450 518 39,000  Level Albuquerque Center
05:47PM 32.7522 -108.2131 133° Southeast 454 522 39,000  Level Albuquerque Center
05:48PM 32.6661 -108.1053 133° Southeast 452 520 39,000  Level Albuquerque Center
05:49PM 32.5803 -107.9972 133° Southeast 450 518 39,000  Level Albuquerque Center
05:50PM 32.4947 -107.8878 133° Southeast 452 520 39,000  Level Albuquerque Center
05:51PM 32.4072 -107.7775 133° Southeast 452 520 39,000  Level Albuquerque Center
05:52PM 32.3217 -107.6711 134° Southeast 450 518 39,000  Level Albuquerque Center
05:53PM 32.2211 -107.5425 133° Southeast 449 517 39,000  Level Albuquerque Center
05:54PM 32.1375 -107.4369 133° Southeast 447 514 39,000  Level Albuquerque Center
05:55PM 32.0533 -107.3314 133° Southeast 446 513 39,000  Level Albuquerque Center
05:56PM 31.9697 -107.2267 133° Southeast 444 511 39,000  Level Albuquerque Center
05:57PM 31.8858 -107.1239 134° Southeast 441 507 39,000  Level Albuquerque Center
05:58PM 31.8008 -107.0200 134° Southeast 441 507 39,000  Level Albuquerque Center
06:00PM 31.7187 -106.8324 117° Southeast  Level FlightAware Approximate
06:07PM 31.2794 -106.0337 127° Southeast  Level FlightAware Approximate
06:08PM 31.2090 -105.9262 127° Southeast  Level FlightAware Approximate
06:09PM 31.1386 -105.8189 127° Southeast  Level FlightAware Approximate
06:10PM 31.0680 -105.7117 128° Southeast  Level FlightAware Approximate
06:11PM 30.9974 -105.6046 128° Southeast  Level FlightAware Approximate
06:12PM 30.9248 -105.4995 129° Southeast  Level FlightAware Approximate
06:13PM 30.8517 -105.3949 129° Southeast  Level FlightAware Approximate
06:14PM 30.7785 -105.2905 129° Southeast  Level FlightAware Approximate
06:15PM 30.7046 -105.1869 130° Southeast  Level FlightAware Approximate
06:16PM 30.6302 -105.0838 130° Southeast  Level FlightAware Approximate
06:17PM 30.5557 -104.9808 130° Southeast  Level FlightAware Approximate
06:18PM 30.4723 -104.8882 139° Southeast  Level FlightAware Approximate
06:19PM 30.3850 -104.8000 139° Southeast  Level FlightAware Approximate
06:20PM 30.2976 -104.7120 139° Southeast  Level FlightAware Approximate
06:21PM 30.2102 -104.6241 139° Southeast  Level FlightAware Approximate
06:22PM 30.1227 -104.5364 139° Southeast  Level FlightAware Approximate
06:23PM 30.0352 -104.4489 139° Southeast  Level FlightAware Approximate
06:24PM 29.9477 -104.3615 139° Southeast  Level FlightAware Approximate
06:25PM 29.8600 -104.2743 139° Southeast  Level FlightAware Approximate
06:26PM 29.7723 -104.1872 139° Southeast  Level FlightAware Approximate
06:27PM 29.6846 -104.1002 139° Southeast  Level FlightAware Approximate
06:28PM 29.5968 -104.0134 139° Southeast  Level FlightAware Approximate
06:29PM 29.5097 -103.9257 139° Southeast  Level FlightAware Approximate
06:30PM 29.4226 -103.8382 139° Southeast  Level FlightAware Approximate
06:31PM 29.3354 -103.7508 139° Southeast  Level FlightAware Approximate
06:32PM 29.2481 -103.6636 139° Southeast  Level FlightAware Approximate
06:33PM 29.1609 -103.5765 139° Southeast  Level FlightAware Approximate
06:34PM 29.0735 -103.4895 139° Southeast  Level FlightAware Approximate
06:35PM 28.9861 -103.4027 139° Southeast  Level FlightAware Approximate
06:36PM 28.8983 -103.3166 139° Southeast  Level FlightAware Approximate
06:37PM 28.8104 -103.2306 139° Southeast  Level FlightAware Approximate
06:38PM 28.7224 -103.1448 139° Southeast  Level FlightAware Approximate
06:39PM 28.6344 -103.0591 139° Southeast  Level FlightAware Approximate
06:40PM 28.5463 -102.9735 140° Southeast  Level FlightAware Approximate
06:41PM 28.4582 -102.8881 140° Southeast  Level FlightAware Approximate
06:42PM 28.3700 -102.8028 140° Southeast  Level FlightAware Approximate
06:43PM 28.2818 -102.7177 140° Southeast  Level FlightAware Approximate
06:44PM 28.1935 -102.6327 140° Southeast  Level FlightAware Approximate
06:45PM 28.1052 -102.5479 140° Southeast  Level FlightAware Approximate
06:46PM 28.0168 -102.4631 140° Southeast  Level FlightAware Approximate
06:47PM 27.9283 -102.3786 140° Southeast  Level FlightAware Approximate
06:48PM 27.8390 -102.2953 140° Southeast  Level FlightAware Approximate
06:49PM 27.7496 -102.2122 141° Southeast  Level FlightAware Approximate
06:50PM 27.6602 -102.1291 141° Southeast  Level FlightAware Approximate
06:51PM 27.5708 -102.0462 141° Southeast  Level FlightAware Approximate
06:52PM 27.4812 -101.9635 141° Southeast  Level FlightAware Approximate
06:53PM 27.3921 -101.8802 140° Southeast  Level FlightAware Approximate
06:54PM 27.3030 -101.7971 140° Southeast  Level FlightAware Approximate
06:55PM 27.2138 -101.7140 140° Southeast  Level FlightAware Approximate
06:56PM 27.1250 -101.6306 140° Southeast  Level FlightAware Approximate
06:57PM 27.0361 -101.5473 140° Southeast  Level FlightAware Approximate
06:58PM 26.9477 -101.4636 130° Southeast  Level FlightAware Approximate
06:59PM 26.8689 -101.3689 138° Southeast  Level FlightAware Approximate
07:00PM 26.7905 -101.2735 132° Southeast  Level FlightAware Approximate
07:01PM 26.7120 -101.1782 136° Southeast  Level FlightAware Approximate
07:02PM 26.6289 -101.0881 136° Southeast  Level FlightAware Approximate
07:03PM 26.5457 -100.9980 136° Southeast  Level FlightAware Approximate
07:04PM 26.4659 -100.9044 132° Southeast  Level FlightAware Approximate
07:05PM 26.3879 -100.8089 132° Southeast  Level FlightAware Approximate
07:06PM 26.3098 -100.7135 132° Southeast  Level FlightAware Approximate
07:07PM 26.2317 -100.6183 132° Southeast  Level FlightAware Approximate
07:08PM 26.1514 -100.5254 134° Southeast  Level FlightAware Approximate
07:09PM 26.0687 -100.4353 138° Southeast  Level FlightAware Approximate
07:10PM 25.9826 -100.3492 138° Southeast  Level FlightAware Approximate
07:11PM 25.9016 -100.2577 130° Southeast  Level FlightAware Approximate
07:12PM 25.8656 -100.2372 138° Southeast  Level Estimated
07:13PM 25.8656 -100.2372 310° West  Level Estimated
07:14PM 25.8656 -100.2372 318° Northwest  Level Estimated
07:15PM 25.8656 -100.2372 318° Northwest  Level Estimated
07:16PM 25.8656 -100.2372 318° Northwest  Level Estimated
07:17PM 25.8656 -100.2372 318° Northwest  Level Estimated
07:18PM 25.8656 -100.2372 318° Northwest  Level Estimated
07:19PM 25.8656 -100.2372 318° Northwest  Level Estimated
07:20PM 25.8656 -100.2372 318° Northwest  Level Estimated
07:21PM 25.8656 -100.2372 318° Northwest  Level Estimated
07:22PM 25.8656 -100.2372 318° Northwest  Level Estimated
07:23PM 25.8656 -100.2372 318° Northwest  Level Estimated
07:24PM 25.8656 -100.2372 318° Northwest  Level Estimated
07:25PM 25.8656 -100.2372 318° Northwest  Level Estimated
07:26PM 25.8656 -100.2372 318° Northwest  Level Estimated
07:27PM 25.8656 -100.2372 318° Northwest  Level Estimated
07:28PM 25.8656 -100.2372 318° Northwest  Level Estimated
07:29PM 25.8656 -100.2372 318° Northwest  Level Estimated
07:30PM 25.8656 -100.2372 318° Northwest  Level Estimated
07:31PM 25.8656 -100.2372 318° Northwest  Level Estimated
07:32PM 25.8656 -100.2372 318° Northwest  Level Estimated
07:33PM 25.8656 -100.2372 318° Northwest  Level Estimated
07:34PM 25.8656 -100.2372 318° Northwest  Level Estimated
07:35PM 25.8656 -100.2372 318° Northwest  Level Estimated